Time;durP1;ratioP1;P1;durP2;ratioP2;P2;SDS_P1;SDS_P2;PMS_P1;PMS_P2;Temp;Humidity;BMP_temperature;BMP_pressure;BME280_temperature;BME280_humidity;BME280_pressure;Samples;Min_cycle;Max_cycle;Signal;HPM_P1;HPM_P2
2022/10/28 00:01:06;;;;;;;14.48;6.00;;;;;;;11.40;100.00;155388.00;5014732;28;20048;-73
2022/10/28 00:03:32;;;;;;;8.52;6.00;;;;;;;11.41;100.00;155390.56;5003157;28;20030;-73
2022/10/28 00:06:03;;;;;;;9.35;5.80;;;;;;;11.41;100.00;155391.81;5008379;28;20038;-73
2022/10/28 00:08:29;;;;;;;9.00;5.60;;;;;;;11.40;100.00;155388.00;5008391;28;20029;-72
2022/10/28 00:11:03;;;;;;;11.88;5.88;;;;;;;11.40;100.00;155389.28;4999457;28;20510;-73
2022/10/28 00:13:29;;;;;;;11.45;6.57;;;;;;;11.48;100.00;155409.81;4991721;28;20167;-72
2022/10/28 00:16:12;;;;;;;11.40;6.82;;;;;;;11.52;100.00;155418.78;5015622;28;20049;-72
2022/10/28 00:18:39;;;;;;;12.60;6.60;;;;;;;11.52;100.00;155417.53;4996163;28;20041;-73
2022/10/28 00:21:17;;;;;;;12.65;6.70;;;;;;;11.50;100.00;155413.66;5004912;28;20399;-73
2022/10/28 00:23:43;;;;;;;10.48;6.50;;;;;;;11.45;100.00;155400.81;5015594;28;20037;-73
2022/10/28 00:26:12;;;;;;;8.05;5.53;;;;;;;11.44;100.00;155398.25;5026527;28;20864;-73
2022/10/28 00:28:45;;;;;;;10.77;6.55;;;;;;;11.41;100.00;155390.56;5001464;28;20248;-73
2022/10/28 00:31:12;;;;;;;11.95;7.07;;;;;;;11.38;100.00;155382.88;5000912;28;20038;-73
2022/10/28 00:33:38;;;;;;;8.43;6.45;;;;;;;11.35;100.00;155375.16;5018881;28;20116;-73
2022/10/28 00:36:12;;;;;;;17.02;6.25;;;;;;;11.36;100.00;155379.00;5007744;28;20121;-73
2022/10/28 00:38:39;;;;;;;11.07;6.28;;;;;;;11.35;100.00;155375.16;4987334;28;20042;-73
2022/10/28 00:41:05;;;;;;;11.05;6.22;;;;;;;11.28;100.00;155359.78;5024416;28;20068;-73
2022/10/28 00:43:48;;;;;;;12.00;6.63;;;;;;;11.28;100.00;155359.78;5022549;28;20045;-73
2022/10/28 00:46:20;;;;;;;10.70;6.15;;;;;;;11.25;100.00;155352.06;5015040;28;20129;-73
2022/10/28 00:48:49;;;;;;;13.07;6.00;;;;;;;11.22;100.00;155343.06;5028062;28;20049;-73
2022/10/28 00:51:18;;;;;;;16.90;7.15;;;;;;;11.26;100.00;155353.31;5007207;28;20053;-72
2022/10/28 00:53:47;;;;;;;15.05;6.82;;;;;;;11.27;100.00;155357.19;4991806;28;20052;-73
2022/10/28 00:56:14;;;;;;;12.18;6.30;;;;;;;11.26;100.00;155354.63;5015056;28;20399;-73
2022/10/28 00:58:40;;;;;;;15.57;6.57;;;;;;;11.25;100.00;155352.06;5005592;28;20052;-73
2022/10/28 01:01:06;;;;;;;13.85;6.65;;;;;;;11.22;100.00;155343.06;5009145;28;20036;-73
2022/10/28 01:03:34;;;;;;;12.88;6.57;;;;;;;11.20;100.00;155339.19;5017942;28;20038;-73
2022/10/28 01:06:01;;;;;;;11.85;7.32;;;;;;;11.21;100.00;155340.53;5001072;28;20668;-73
2022/10/28 01:08:27;;;;;;;11.52;6.30;;;;;;;11.27;100.00;155357.19;5024965;28;20030;-73
2022/10/28 01:10:52;;;;;;;8.80;6.13;;;;;;;11.28;100.00;155358.44;5007927;28;20038;-73
2022/10/28 01:13:51;;;;;;;15.05;7.82;;;;;;;11.38;100.00;155382.88;5017558;28;20815;-73
2022/10/28 01:16:40;;;;;;;9.68;6.72;;;;;;;11.43;100.00;155395.69;5014324;28;20041;-73
2022/10/28 01:19:34;;;;;;;13.23;7.53;;;;;;;11.47;100.00;155407.25;4978736;28;20046;-73
2022/10/28 01:22:15;;;;;;;13.48;7.38;;;;;;;11.50;100.00;155414.94;5018657;28;20045;-73
2022/10/28 01:25:03;;;;;;;12.13;7.38;;;;;;;11.53;100.00;155421.38;4996071;28;20077;-73
2022/10/28 01:27:38;;;;;;;12.40;6.68;;;;;;;11.55;100.00;155426.50;5016207;28;20041;-73
2022/10/28 01:30:11;;;;;;;10.48;7.15;;;;;;;11.59;100.00;155436.78;5038306;28;20049;-73
2022/10/28 01:33:05;;;;;;;11.90;6.78;;;;;;;11.65;100.00;155452.16;5011692;28;20046;-73
2022/10/28 01:35:45;;;;;;;12.57;7.20;;;;;;;11.68;100.00;155458.63;5021872;28;20571;-73
2022/10/28 01:38:29;;;;;;;12.60;7.05;;;;;;;11.63;100.00;155447.03;5006724;28;20578;-73
2022/10/28 01:41:16;;;;;;;12.77;6.55;;;;;;;11.61;100.00;155441.91;5005005;28;20029;-74
2022/10/28 01:43:53;;;;;;;13.27;6.50;;;;;;;11.59;100.00;155435.50;4977329;28;20048;-73
2022/10/28 01:46:27;;;;;;;13.23;6.45;;;;;;;11.50;100.00;155414.94;5009397;28;20102;-72
2022/10/28 01:49:00;;;;;;;9.60;6.68;;;;;;;11.48;100.00;155408.53;5019945;28;20041;-73
2022/10/28 01:51:42;;;;;;;11.43;6.43;;;;;;;11.46;100.00;155404.66;4998532;28;20541;-72
2022/10/28 01:54:09;;;;;;;13.88;6.65;;;;;;;11.47;100.00;155407.25;5037436;28;20053;-74
2022/10/28 01:56:40;;;;;;;9.25;6.30;;;;;;;11.41;100.00;155390.56;5018680;28;20109;-74
2022/10/28 01:59:10;;;;;;;14.70;6.53;;;;;;;11.36;100.00;155377.69;5017883;28;20136;-76
2022/10/28 02:01:36;;;;;;;11.60;6.93;;;;;;;11.35;100.00;155375.16;5000742;28;20061;-75
2022/10/28 02:04:02;;;;;;;16.95;6.93;;;;;;;11.35;100.00;155375.16;5013015;28;20069;-73
2022/10/28 02:06:31;;;;;;;12.65;6.07;;;;;;;11.38;100.00;155382.88;5030395;28;20053;-75
2022/10/28 02:09:17;;;;;;;14.55;7.10;;;;;;;11.38;100.00;155382.88;4992276;28;20046;-75
2022/10/28 02:12:15;;;;;;;10.65;6.85;;;;;;;11.38;100.00;155384.16;5008756;28;20140;-75
2022/10/28 02:14:59;;;;;;;11.45;6.75;;;;;;;11.40;100.00;155388.00;5013680;28;20041;-72
2022/10/28 02:18:03;;;;;;;15.48;7.05;;;;;;;11.45;100.00;155400.81;5018984;28;20466;-75
2022/10/28 02:20:44;;;;;;;9.68;6.82;;;;;;;11.46;100.00;155404.66;5011562;28;20040;-74
2022/10/28 02:23:27;;;;;;;9.25;5.85;;;;;;;11.49;100.00;155411.13;5010535;28;20462;-74
2022/10/28 02:26:20;;;;;;;10.65;6.78;;;;;;;11.45;100.00;155402.13;5012185;28;20042;-75
2022/10/28 02:29:00;;;;;;;11.55;7.07;;;;;;;11.45;100.00;155400.81;5012721;28;20045;-74
2022/10/28 02:31:39;;;;;;;17.27;7.50;;;;;;;11.36;100.00;155377.69;5017980;28;20056;-74
2022/10/28 02:34:10;;;;;;;13.38;7.13;;;;;;;11.28;100.00;155359.78;5013836;28;20117;-74
2022/10/28 02:36:40;;;;;;;14.57;7.40;;;;;;;11.23;100.00;155346.91;5023322;28;20437;-73
2022/10/28 02:39:06;;;;;;;12.02;7.60;;;;;;;11.23;100.00;155346.91;5011489;28;20212;-74
2022/10/28 02:41:47;;;;;;;15.82;7.70;;;;;;;11.15;100.00;155326.41;5016722;28;20030;-74
2022/10/28 02:44:17;;;;;;;14.75;7.55;;;;;;;11.10;100.00;155314.81;4999105;28;20099;-74
2022/10/28 02:46:47;;;;;;;13.38;7.45;;;;;;;11.04;100.00;155298.16;5023556;28;20041;-74
2022/10/28 02:49:14;;;;;;;17.67;8.02;;;;;;;11.04;100.00;155299.44;5033668;28;20411;-74
2022/10/28 02:51:48;;;;;;;10.15;7.38;;;;;;;11.04;100.00;155298.16;5014759;28;20038;-73
2022/10/28 02:54:17;;;;;;;17.85;9.00;;;;;;;11.04;100.00;155298.16;5013123;28;20038;-73
2022/10/28 02:56:50;;;;;;;17.80;9.00;;;;;;;11.03;100.00;155296.84;5020422;28;20044;-76
2022/10/28 02:59:16;;;;;;;16.65;8.27;;;;;;;11.02;100.00;155293.00;4991242;28;20033;-75
2022/10/28 03:01:41;;;;;;;20.13;8.95;;;;;;;10.98;100.00;155284.06;5025722;28;20048;-73
2022/10/28 03:04:07;;;;;;;14.35;8.95;;;;;;;10.99;100.00;155286.59;5017538;28;20520;-74
2022/10/28 03:06:33;;;;;;;17.65;9.07;;;;;;;11.08;100.00;155309.69;5021219;28;20034;-74
2022/10/28 03:08:58;;;;;;;14.68;8.82;;;;;;;11.13;100.00;155321.22;4999209;28;20037;-74
2022/10/28 03:11:24;;;;;;;15.40;9.02;;;;;;;11.15;100.00;155326.41;5010098;28;20026;-74
2022/10/28 03:13:49;;;;;;;16.55;8.98;;;;;;;11.18;100.00;155334.06;5007984;28;20068;-73
2022/10/28 03:16:15;;;;;;;18.63;9.13;;;;;;;11.21;100.00;155341.78;5005616;28;20080;-74
2022/10/28 03:18:41;;;;;;;13.20;7.82;;;;;;;11.18;100.00;155334.06;5006458;28;20033;-74
2022/10/28 03:21:07;;;;;;;15.57;9.38;;;;;;;11.22;100.00;155343.06;5016705;28;20482;-75
2022/10/28 03:23:33;;;;;;;13.50;8.13;;;;;;;11.27;100.00;155355.91;5006076;28;20044;-74
2022/10/28 03:25:58;;;;;;;17.90;8.77;;;;;;;11.25;100.00;155350.78;5020791;28;20108;-74
2022/10/28 03:28:24;;;;;;;17.58;8.65;;;;;;;11.16;100.00;155328.94;5010394;28;20045;-74
2022/10/28 03:30:49;;;;;;;13.27;8.50;;;;;;;11.17;100.00;155331.53;5021893;28;20042;-74
2022/10/28 03:33:15;;;;;;;11.35;8.75;;;;;;;11.14;100.00;155323.81;5007948;28;20388;-73
2022/10/28 03:35:41;;;;;;;14.48;9.00;;;;;;;11.13;100.00;155321.22;5018687;28;20106;-74
2022/10/28 03:38:06;;;;;;;15.38;8.95;;;;;;;11.12;100.00;155318.69;4997356;28;20056;-74
2022/10/28 03:40:33;;;;;;;16.85;9.07;;;;;;;11.14;100.00;155323.81;5011325;28;20029;-74
2022/10/28 03:42:59;;;;;;;16.40;8.13;;;;;;;11.16;100.00;155328.94;5007145;28;20036;-75
2022/10/28 03:45:24;;;;;;;18.27;8.43;;;;;;;11.20;100.00;155339.19;5009906;28;20053;-74
2022/10/28 03:47:50;;;;;;;14.15;8.50;;;;;;;11.20;100.00;155339.19;5011103;28;20068;-74
2022/10/28 03:50:16;;;;;;;14.68;8.15;;;;;;;11.28;100.00;155358.44;5006950;28;20075;-75
2022/10/28 03:52:43;;;;;;;13.77;8.48;;;;;;;11.29;100.00;155362.31;5015578;28;20065;-75
2022/10/28 03:55:09;;;;;;;17.50;8.95;;;;;;;11.30;100.00;155363.56;5020511;28;20030;-74
2022/10/28 03:57:35;;;;;;;14.82;8.27;;;;;;;11.33;100.00;155370.03;5017780;28;20044;-75
2022/10/28 04:00:01;;;;;;;12.73;8.80;;;;;;;11.37;100.00;155381.56;5025688;28;20834;-72
2022/10/28 04:02:26;;;;;;;16.30;9.05;;;;;;;11.39;100.00;155385.41;4998858;28;20061;-74
2022/10/28 04:04:52;;;;;;;16.27;8.85;;;;;;;11.37;100.00;155381.56;5028731;28;20037;-73
2022/10/28 04:07:18;;;;;;;14.93;8.70;;;;;;;11.37;100.00;155381.56;4996320;28;20052;-74
2022/10/28 04:09:44;;;;;;;16.75;9.15;;;;;;;11.44;100.00;155398.25;5009380;28;20029;-74
2022/10/28 04:12:10;;;;;;;14.52;9.60;;;;;;;11.50;100.00;155414.94;5019717;28;20048;-74
2022/10/28 04:14:36;;;;;;;17.08;8.82;;;;;;;11.52;100.00;155418.78;5003907;28;20455;-74
2022/10/28 04:17:01;;;;;;;16.45;9.50;;;;;;;11.56;100.00;155429.06;5018103;28;20511;-74
2022/10/28 04:19:27;;;;;;;18.65;9.45;;;;;;;11.57;100.00;155430.38;5016402;28;20103;-73
2022/10/28 04:21:53;;;;;;;17.27;9.38;;;;;;;11.53;100.00;155420.06;5014928;28;20113;-73
2022/10/28 04:24:18;;;;;;;14.75;8.18;;;;;;;11.48;100.00;155409.81;5002668;28;20072;-73
2022/10/28 04:26:44;;;;;;;15.20;8.63;;;;;;;11.48;100.00;155409.81;5022623;28;20479;-73
2022/10/28 04:29:09;;;;;;;13.57;8.20;;;;;;;11.50;100.00;155413.66;5003531;28;20104;-72
2022/10/28 04:31:35;;;;;;;12.70;8.20;;;;;;;11.54;100.00;155423.91;5008408;28;20064;-73
2022/10/28 04:34:00;;;;;;;15.48;8.85;;;;;;;11.48;100.00;155408.53;5010306;28;20695;-72
2022/10/28 04:36:26;;;;;;;13.77;8.30;;;;;;;11.54;100.00;155422.66;5023472;28;20037;-73
2022/10/28 04:38:52;;;;;;;16.50;9.05;;;;;;;11.57;100.00;155431.63;5019249;28;20046;-74
2022/10/28 04:41:18;;;;;;;12.50;8.10;;;;;;;11.53;100.00;155421.38;5016957;28;20030;-74
2022/10/28 04:43:43;;;;;;;15.95;8.60;;;;;;;11.47;100.00;155407.25;5023805;28;20042;-74
2022/10/28 04:46:09;;;;;;;17.27;8.38;;;;;;;11.45;100.00;155402.13;5026473;28;20065;-74
2022/10/28 04:48:35;;;;;;;14.70;9.00;;;;;;;11.43;100.00;155397.00;5031371;28;20213;-74
2022/10/28 04:51:00;;;;;;;15.10;8.82;;;;;;;11.41;100.00;155391.81;5008250;28;20321;-74
2022/10/28 04:53:26;;;;;;;14.88;8.65;;;;;;;11.42;100.00;155394.41;5016556;28;20045;-74
2022/10/28 04:56:01;;;;;;;14.95;8.60;;;;;;;11.41;100.00;155390.56;5012456;28;20033;-74
2022/10/28 04:58:26;;;;;;;15.27;7.93;;;;;;;11.35;100.00;155375.16;5021756;28;20054;-71
2022/10/28 05:00:52;;;;;;;17.25;8.10;;;;;;;11.34;100.00;155372.56;5012810;28;20107;-73
2022/10/28 05:03:17;;;;;;;14.27;8.23;;;;;;;11.32;100.00;155368.75;5024684;28;20036;-73
2022/10/28 05:05:43;;;;;;;13.85;8.25;;;;;;;11.25;100.00;155352.06;5004860;28;20100;-73
2022/10/28 05:08:09;;;;;;;15.55;8.68;;;;;;;11.18;100.00;155332.81;4979192;28;20105;-73
2022/10/28 05:10:34;;;;;;;14.38;8.38;;;;;;;11.16;100.00;155328.94;4995721;28;20033;-73
2022/10/28 05:13:00;;;;;;;15.93;9.18;;;;;;;11.14;100.00;155323.81;5005192;28;20520;-73
2022/10/28 05:15:25;;;;;;;15.68;9.23;;;;;;;11.14;100.00;155322.53;5006159;28;20034;-73
2022/10/28 05:17:51;;;;;;;17.55;8.20;;;;;;;11.16;100.00;155327.66;5004813;28;20037;-73
2022/10/28 05:20:18;;;;;;;16.95;8.85;;;;;;;11.13;100.00;155319.97;5003913;28;20044;-74
2022/10/28 05:22:46;;;;;;;14.45;8.77;;;;;;;11.16;100.00;155328.94;4991839;28;20088;-73
2022/10/28 05:25:12;;;;;;;14.60;8.85;;;;;;;11.13;100.00;155319.97;4982586;28;20495;-72
2022/10/28 05:27:37;;;;;;;19.83;9.10;;;;;;;11.08;100.00;155308.44;4989148;28;20169;-74
2022/10/28 05:30:04;;;;;;;12.02;8.40;;;;;;;11.07;100.00;155307.09;4989248;28;20133;-72
2022/10/28 05:32:29;;;;;;;12.68;8.65;;;;;;;11.11;100.00;155316.09;4986995;28;20100;-72
2022/10/28 05:34:55;;;;;;;13.13;9.00;;;;;;;11.17;100.00;155330.22;5001611;28;20466;-73
2022/10/28 05:37:21;;;;;;;20.35;9.82;;;;;;;11.18;100.00;155334.06;5006557;28;20045;-73
2022/10/28 05:39:46;;;;;;;17.75;9.48;;;;;;;11.16;100.00;155327.66;5019256;28;20115;-72
2022/10/28 05:42:12;;;;;;;18.65;9.73;;;;;;;11.11;100.00;155316.09;5007432;28;20041;-72
2022/10/28 05:44:38;;;;;;;14.98;9.55;;;;;;;11.06;100.00;155303.28;4994394;28;20033;-73
2022/10/28 05:47:03;;;;;;;16.42;9.27;;;;;;;11.03;100.00;155296.84;4997025;28;20404;-74
2022/10/28 05:49:29;;;;;;;15.88;9.07;;;;;;;11.05;100.00;155300.72;4989035;28;20389;-72
2022/10/28 05:51:55;;;;;;;16.10;9.20;;;;;;;11.03;100.00;155295.56;4983404;28;20038;-73
2022/10/28 05:54:20;;;;;;;16.38;9.18;;;;;;;10.96;100.00;155277.59;4989267;28;20034;-73
2022/10/28 05:56:46;;;;;;;16.83;9.23;;;;;;;10.92;100.00;155268.63;4972861;28;20069;-72
2022/10/28 05:59:12;;;;;;;18.42;10.13;;;;;;;10.96;100.00;155278.88;4980832;28;20037;-73
2022/10/28 06:01:38;;;;;;;18.30;9.43;;;;;;;10.97;100.00;155280.19;5017398;28;20045;-74
2022/10/28 06:04:05;;;;;;;20.20;10.13;;;;;;;10.98;100.00;155282.72;5004107;28;20057;-72
2022/10/28 06:06:31;;;;;;;16.88;10.43;;;;;;;10.97;100.00;155281.47;5016156;28;20034;-72
2022/10/28 06:08:56;;;;;;;13.85;9.10;;;;;;;10.97;100.00;155281.47;5003247;28;20042;-73
2022/10/28 06:11:22;;;;;;;17.33;9.10;;;;;;;10.91;100.00;155267.34;4981104;28;20034;-73
2022/10/28 06:13:48;;;;;;;14.85;9.23;;;;;;;10.90;100.00;155263.50;5017513;28;20042;-73
2022/10/28 06:16:14;;;;;;;15.63;9.23;;;;;;;10.94;100.00;155273.75;5006641;28;20038;-73
2022/10/28 06:18:39;;;;;;;16.95;9.25;;;;;;;10.93;100.00;155269.94;4981247;28;20049;-72
2022/10/28 06:21:05;;;;;;;16.08;9.43;;;;;;;10.88;100.00;155258.34;5016520;28;20037;-72
2022/10/28 06:23:30;;;;;;;16.15;9.88;;;;;;;10.82;100.00;155244.25;5007181;28;20399;-72
2022/10/28 06:25:58;;;;;;;23.15;10.32;;;;;;;10.82;100.00;155244.25;5007175;28;20453;-73
2022/10/28 06:28:25;;;;;;;15.93;9.73;;;;;;;10.79;100.00;155235.25;4983556;28;20053;-73
2022/10/28 06:30:50;;;;;;;23.58;10.25;;;;;;;10.76;100.00;155228.88;4990633;28;20105;-73
2022/10/28 06:33:16;;;;;;;14.60;9.55;;;;;;;10.78;100.00;155234.00;5016012;28;20030;-73
2022/10/28 06:35:42;;;;;;;18.70;9.75;;;;;;;10.80;100.00;155237.84;4984241;28;20684;-73
2022/10/28 06:38:08;;;;;;;14.20;9.13;;;;;;;10.87;100.00;155257.09;5001954;28;20037;-73
2022/10/28 06:40:34;;;;;;;15.52;8.98;;;;;;;10.82;100.00;155242.97;5007081;28;20461;-73
2022/10/28 06:43:01;;;;;;;13.48;9.07;;;;;;;10.81;100.00;155241.69;4988959;28;20042;-73
2022/10/28 06:45:28;;;;;;;20.10;10.20;;;;;;;10.84;100.00;155249.38;4996963;28;20034;-73
2022/10/28 06:47:59;;;;;;;19.88;9.15;;;;;;;10.86;100.00;155253.22;4990720;28;20056;-73
2022/10/28 06:50:25;;;;;;;14.23;9.90;;;;;;;10.91;100.00;155266.06;4982979;28;20040;-74
2022/10/28 06:52:57;;;;;;;20.48;10.60;;;;;;;11.05;100.00;155301.97;5006450;28;20052;-73
2022/10/28 06:55:24;;;;;;;19.40;10.00;;;;;;;11.14;100.00;155323.81;5002258;28;20042;-73
2022/10/28 06:57:49;;;;;;;17.40;9.57;;;;;;;11.19;100.00;155336.66;5018497;28;20121;-74
2022/10/28 07:00:15;;;;;;;12.18;8.77;;;;;;;11.22;100.00;155343.06;5004565;28;20877;-73
2022/10/28 07:02:41;;;;;;;17.10;10.30;;;;;;;11.24;100.00;155348.19;5001741;28;20030;-73
2022/10/28 07:05:07;;;;;;;13.10;10.02;;;;;;;11.36;100.00;155377.69;5004774;28;20041;-74
2022/10/28 07:07:36;;;;;;;15.38;9.70;;;;;;;11.41;100.00;155390.56;4993867;28;20030;-73
2022/10/28 07:10:04;;;;;;;20.85;9.77;;;;;;;11.52;100.00;155418.78;4984566;28;20483;-74
2022/10/28 07:12:29;;;;;;;17.52;9.57;;;;;;;11.58;100.00;155434.19;4994514;28;20102;-75
2022/10/28 07:14:55;;;;;;;13.15;8.43;;;;;;;11.60;100.00;155439.34;4990166;28;20041;-74
2022/10/28 07:17:23;;;;;;;14.95;9.43;;;;;;;11.67;100.00;155456.03;5004065;28;20041;-74
2022/10/28 07:19:48;;;;;;;20.33;8.63;;;;;;;11.74;100.00;155472.72;5003333;28;20052;-74
2022/10/28 07:22:14;;;;;;;16.83;8.45;;;;;;;11.79;100.00;155485.53;5004529;28;20403;-74
2022/10/28 07:24:40;;;;;;;18.55;8.63;;;;;;;11.80;100.00;155488.13;4998268;28;20076;-74
2022/10/28 07:27:07;;;;;;;14.20;7.93;;;;;;;11.91;100.00;155516.44;4994565;28;20038;-74
2022/10/28 07:29:33;;;;;;;16.13;8.35;;;;;;;11.97;100.00;155531.81;5003683;28;20030;-74
2022/10/28 07:31:59;;;;;;;15.65;7.88;;;;;;;12.08;100.00;155558.81;4996221;28;20041;-74
2022/10/28 07:34:25;;;;;;;13.13;7.68;;;;;;;12.18;100.00;155584.47;4980768;28;20038;-74
2022/10/28 07:36:52;;;;;;;13.48;7.75;;;;;;;12.24;100.00;155599.91;4991337;28;20125;-74
2022/10/28 07:39:18;;;;;;;14.55;8.18;;;;;;;12.33;100.00;155620.44;4995798;28;20526;-74
2022/10/28 07:41:44;;;;;;;14.13;7.57;;;;;;;12.48;100.00;155657.69;5011352;28;20121;-74
2022/10/28 07:44:10;;;;;;;16.10;7.70;;;;;;;12.62;100.00;155693.63;4985624;28;20126;-73
2022/10/28 07:46:36;;;;;;;14.10;7.00;;;;;;;12.74;100.00;155724.47;5001350;28;20037;-73
2022/10/28 07:49:04;;;;;;;16.05;7.30;;;;;;;12.84;100.00;155748.88;4976495;28;20132;-73
2022/10/28 07:51:30;;;;;;;15.75;7.53;;;;;;;12.96;100.00;155779.75;4971125;28;20038;-72
2022/10/28 07:53:56;;;;;;;16.27;7.22;;;;;;;13.08;100.00;155809.28;4969459;28;20072;-72
2022/10/28 07:56:22;;;;;;;16.20;7.75;;;;;;;13.21;100.00;155841.41;4986000;28;20129;-71
2022/10/28 07:58:48;;;;;;;15.35;7.25;;;;;;;13.26;100.00;155854.28;4983512;28;20045;-73
2022/10/28 08:01:17;;;;;;;17.83;7.28;;;;;;;13.31;100.00;155865.88;5002281;28;20026;-73
2022/10/28 08:03:43;;;;;;;16.00;7.13;;;;;;;13.38;100.00;155885.16;4998271;28;20053;-72
2022/10/28 08:06:16;;;;;;;14.27;6.38;;;;;;;13.51;100.00;155916.03;5004728;28;20042;-73
2022/10/28 08:08:43;;;;;;;13.85;6.35;;;;;;;13.61;100.00;155942.97;4979703;28;20049;-73
2022/10/28 08:11:21;;;;;;;15.32;5.70;;;;;;;13.71;100.00;155967.44;4979717;28;20045;-73
2022/10/28 08:13:47;;;;;;;11.00;5.68;;;;;;;13.77;100.00;155981.56;5005397;28;20038;-73
2022/10/28 08:16:13;;;;;;;11.48;5.30;;;;;;;13.89;100.00;156011.13;4987623;28;20045;-73
2022/10/28 08:18:39;;;;;;;18.15;5.97;;;;;;;13.97;100.00;156031.69;5020869;28;20045;-73
2022/10/28 08:21:06;;;;;;;17.77;5.78;;;;;;;13.97;100.00;156032.94;5018785;28;20399;-72
2022/10/28 08:23:32;;;;;;;8.35;4.70;;;;;;;14.08;100.00;156058.69;4988029;28;20034;-74
2022/10/28 08:25:58;;;;;;;13.00;5.40;;;;;;;14.21;100.00;156092.13;5014239;28;20392;-73
2022/10/28 08:28:24;;;;;;;14.85;5.53;;;;;;;14.26;100.00;156103.66;4969662;28;20517;-74
2022/10/28 08:30:50;;;;;;;14.85;5.20;;;;;;;14.30;100.00;156114.00;4990819;28;20085;-74
2022/10/28 08:33:16;;;;;;;15.27;5.05;;;;;;;14.30;100.00;156115.28;4999569;28;20038;-74
2022/10/28 08:35:47;;;;;;;13.90;5.18;;;;;;;14.29;100.00;156111.41;5001739;28;20042;-74
2022/10/28 08:38:13;;;;;;;11.88;5.38;;;;;;;14.34;100.00;156124.28;4998225;28;20046;-74
2022/10/28 08:41:02;;;;;;;12.63;5.70;;;;;;;14.47;100.00;156157.72;5002204;28;20134;-74
2022/10/28 08:43:51;;;;;;;16.85;5.45;;;;;;;14.60;100.00;156189.91;4995709;28;20062;-74
2022/10/28 08:46:44;;;;;;;20.50;6.45;;;;;;;14.75;100.00;156227.22;4990710;28;20515;-74
2022/10/28 08:49:15;;;;;;;12.48;4.57;;;;;;;14.68;100.00;156209.22;4988821;28;20045;-74
2022/10/28 08:51:59;;;;;;;10.73;4.82;;;;;;;14.64;100.00;156200.19;5004770;28;20034;-74
2022/10/28 08:54:49;;;;;;;13.77;4.78;;;;;;;14.67;100.00;156207.88;4999630;28;20034;-74
2022/10/28 08:57:33;;;;;;;14.75;5.50;;;;;;;14.84;100.00;156249.06;5005646;28;20037;-74
2022/10/28 08:59:59;;;;;;;9.35;4.80;;;;;;;14.86;100.00;156254.19;5009027;28;20058;-74
2022/10/28 09:02:29;;;;;;;11.70;5.07;;;;;;;15.01;100.00;156292.78;4998511;28;20034;-74
2022/10/28 09:05:03;;;;;;;11.52;4.68;;;;;;;15.11;100.00;156318.53;4995561;28;20149;-75
2022/10/28 09:07:32;;;;;;;11.45;5.25;;;;;;;15.26;100.00;156355.84;5003642;28;20037;-75
2022/10/28 09:09:58;;;;;;;11.05;4.65;;;;;;;15.41;100.00;156393.19;4993049;28;20514;-73
2022/10/28 09:12:50;;;;;;;11.07;4.93;;;;;;;15.47;100.00;156408.59;5000202;28;20021;-74
2022/10/28 09:15:49;;;;;;;9.73;4.80;;;;;;;15.56;100.00;156430.50;4998168;28;20082;-74
2022/10/28 09:18:21;;;;;;;13.70;4.38;;;;;;;15.73;100.00;156474.28;5002959;28;20037;-74
2022/10/28 09:20:47;;;;;;;;;;;;;;;15.87;100.00;156509.03;5002171;28;20125;-75
2022/10/28 09:23:23;;;;;;;15.18;5.10;;;;;;;15.93;100.00;156523.19;4989590;28;20357;-74
2022/10/28 09:26:14;;;;;;;9.63;4.07;;;;;;;16.15;100.00;156578.53;4993824;28;20041;-74
2022/10/28 09:29:04;;;;;;;13.27;4.85;;;;;;;16.24;100.00;156600.44;5002538;28;20223;-74
2022/10/28 09:31:35;;;;;;;11.90;3.70;;;;;;;16.35;100.00;156628.78;4981017;28;20085;-74
2022/10/28 09:34:26;;;;;;;8.70;3.90;;;;;;;16.41;100.00;156642.94;5019445;28;20053;-73
2022/10/28 09:36:57;;;;;;;11.90;3.83;;;;;;;16.47;100.00;156659.66;4988465;28;20568;-73
2022/10/28 09:39:30;;;;;;;11.90;3.80;;;;;;;16.63;100.00;156699.59;5002203;28;20038;-75
2022/10/28 09:41:59;;;;;;;10.25;3.78;;;;;;;16.79;100.00;156739.47;4988764;28;20450;-75
2022/10/28 09:44:38;;;;;;;14.43;4.20;;;;;;;16.91;100.00;156769.13;4988220;28;20044;-73
2022/10/28 09:47:17;;;;;;;8.55;3.90;;;;;;;17.13;100.00;156825.81;5008410;28;20455;-74
2022/10/28 09:49:46;;;;;;;10.57;3.85;;;;;;;17.20;100.00;156842.56;5014038;28;20042;-74
2022/10/28 09:52:28;;;;;;;11.25;4.20;;;;;;;17.37;100.00;156883.81;4984995;28;20042;-73
2022/10/28 09:54:57;;;;;;;13.45;3.50;;;;;;;17.44;100.00;156903.13;5003064;28;20053;-74
2022/10/28 09:57:30;;;;;;;10.88;4.20;;;;;;;17.48;100.00;156912.16;5005546;28;20503;-75
2022/10/28 09:59:58;;;;;;;11.30;3.60;;;;;;;17.53;100.00;156925.00;4987305;28;20030;-74
2022/10/28 10:02:27;;;;;;;19.73;4.30;;;;;;;17.70;100.00;156968.78;4999228;28;20025;-73
2022/10/28 10:04:56;;;;;;;9.73;3.60;;;;;;;17.76;100.00;156982.97;5022932;28;20048;-75
2022/10/28 10:07:30;;;;;;;14.02;4.10;;;;;;;17.83;100.00;156999.75;4989897;28;20328;-73
2022/10/28 10:09:59;;;;;;;13.30;4.05;;;;;;;17.93;100.00;157024.25;4997382;28;20026;-73
2022/10/28 10:12:26;;;;;;;10.40;3.80;;;;;;;17.97;100.00;157035.88;4991445;28;20563;-74
2022/10/28 10:14:55;;;;;;;13.07;3.80;;;;;;;18.11;100.00;157070.66;5021512;28;20069;-73
2022/10/28 10:17:41;;;;;;;16.80;3.50;;;;;;;18.37;100.00;157135.13;5000918;28;20095;-73
2022/10/28 10:20:17;;;;;;;12.50;2.97;;;;;;;18.40;100.00;157144.16;5022553;28;20458;-74
2022/10/28 10:22:44;;;;;;;11.82;3.55;;;;;;;18.57;100.00;157185.38;5010451;28;20190;-74
2022/10/28 10:25:16;;;;;;;10.82;3.30;;;;;;;18.62;100.00;157199.53;5010897;28;20038;-74
2022/10/28 10:28:08;;;;;;;8.15;3.42;;;;;;;18.79;100.00;157242.09;5021021;28;20049;-74
2022/10/28 10:30:44;;;;;;;14.32;3.47;;;;;;;19.00;100.00;157293.72;4993377;28;20109;-74
2022/10/28 10:33:23;;;;;;;11.45;3.15;;;;;;;19.04;100.00;157305.34;4997816;28;20085;-74
2022/10/28 10:35:59;;;;;;;15.13;3.55;;;;;;;19.04;100.00;157305.34;5003697;28;20041;-74
2022/10/28 10:38:26;;;;;;;12.13;3.70;;;;;;;19.05;100.00;157307.91;4990251;28;20045;-74
2022/10/28 10:40:52;;;;;;;12.13;3.28;;;;;;;19.13;100.00;157327.22;4990137;28;20556;-74
2022/10/28 10:43:21;;;;;;;15.75;3.10;;;;;;;19.14;100.00;157329.84;4989007;28;20670;-74
2022/10/28 10:46:14;;;;;;;13.80;3.42;;;;;;;19.35;100.00;157382.69;5005732;28;20045;-74
2022/10/28 10:48:40;;;;;;;12.95;3.47;;;;;;;19.50;100.00;157420.09;5004821;28;20045;-74
2022/10/28 10:51:26;;;;;;;13.50;3.60;;;;;;;19.53;100.00;157426.53;5003828;28;20040;-74
2022/10/28 10:53:56;;;;;;;12.75;3.13;;;;;;;19.69;100.00;157466.53;5006559;28;20042;-74
2022/10/28 10:56:28;;;;;;;12.85;3.40;;;;;;;19.87;100.00;157511.72;4997039;28;20038;-74
2022/10/28 10:58:56;;;;;;;15.00;3.38;;;;;;;19.93;100.00;157528.50;5007029;28;20040;-74
2022/10/28 11:01:26;;;;;;;10.77;2.75;;;;;;;20.02;100.00;157551.72;5007013;28;20284;-74
2022/10/28 11:03:53;;;;;;;13.07;3.30;;;;;;;20.03;100.00;157554.28;5005598;28;20038;-74
2022/10/28 11:06:24;;;;;;;10.50;2.85;;;;;;;20.09;99.31;157568.47;4996370;28;20050;-74
2022/10/28 11:09:00;;;;;;;10.32;2.92;;;;;;;20.11;99.23;157573.63;4991350;28;20042;-73
2022/10/28 11:11:39;;;;;;;13.95;3.50;;;;;;;20.12;97.22;157576.25;4985947;28;20030;-74
2022/10/28 11:14:20;;;;;;;12.10;3.03;;;;;;;20.17;98.82;157587.81;4984519;28;20045;-73
2022/10/28 11:16:53;;;;;;;15.63;3.00;;;;;;;20.19;99.22;157594.31;4997470;28;20041;-74
2022/10/28 11:19:32;;;;;;;11.70;2.88;;;;;;;20.35;98.49;157634.28;4988659;28;20049;-74
2022/10/28 11:22:07;;;;;;;12.98;3.20;;;;;;;20.46;94.29;157661.41;4977233;28;20038;-73
2022/10/28 11:24:52;;;;;;;12.38;2.72;;;;;;;20.68;94.60;157715.63;5014550;28;20053;-74